ADDS METAR Data INFO
IDs: Format: Raw Decoded Include TAF

Data at: 2304 UTC 15 Jul 2018

KMCO 152253Z 16003KT 10SM FEW040 FEW095 BKN200 32/22 A3000 RMK AO2 SLP157 CB DSNT SW T03220217
KMCO 152153Z 17003KT 10SM FEW040 FEW095 BKN200 33/22 A3000 RMK AO2 SLP159 CB DSNT S T03280222
KMCO 152053Z VRB03KT 10SM FEW040 FEW095 BKN200 32/22 A3001 RMK AO2 SLP162 CB DSNT N AND W TCU DSNT NE-SE T03220217 58015
KMCO 151953Z COR 00000KT 10SM FEW035 FEW095 BKN250 33/22 A3002 RMK AO2 SLP165 CB DSNT SE AND SW-NW T03280217
KMCO 151853Z 15007KT 10SM SCT044TCU BKN250 33/23 A3006 RMK AO2 SLP176 CB DSNT SW-NW TCU E-S T03280228
KMCO 151753Z 28004KT 10SM FEW046 FEW170 BKN250 33/22 A3006 RMK AO2 SLP176 CB DSNT N T03280217 10328 20261 58007
KMCO 151653Z 32006KT 10SM FEW038 FEW170 BKN250 BKN300 32/23 A3008 RMK AO2 SLP184 T03220228
KMCO 151553Z 00000KT 10SM FEW030 SCT170 BKN300 31/23 A3008 RMK AO2 SLP184 T03110228
KMCO 151453Z 22005KT 10SM FEW030 BKN170 BKN300 29/23 A3008 RMK AO2 SLP184 T02940233 50004
KMCO 151353Z 29004KT 10SM FEW250 BKN300 29/24 A3008 RMK AO2 SLP186 T02890239
KMCO 151253Z 31003KT 10SM FEW250 BKN300 27/24 A3008 RMK AO2 SLP184 T02670239
KMCO 151153Z 00000KT 10SM FEW200 BKN250 26/24 A3007 RMK AO2 SLP179 T02610239 10261 20239 53007
KMCO 151053Z COR 25005KT 10SM FEW200 BKN250 24/23 A3005 RMK AO2 SLP174 T02440233
KMCO 150953Z 00000KT 10SM SCT250 24/23 A3004 RMK AO2 SLP171 T02390233
KMCO 150853Z 18004KT 10SM SCT250 24/24 A3005 RMK AO2 SLP173 T02390239 55004
KMCO 150753Z 20003KT 10SM SCT250 25/24 A3004 RMK AO2 SLP171 T02500239
KMCO 150653Z 16004KT 10SM FEW250 24/24 A3004 RMK AO2 SLP172 T02440239
KMCO 150553Z 19003KT 10SM FEW250 26/24 A3006 RMK AO2 SLP177 T02560239 10311 20256 56011
KMCO 150453Z 14005KT 10SM SCT250 26/24 A3007 RMK AO2 SLP181 T02610239 403440228
KMCO 150353Z 12006KT 10SM SCT250 28/23 A3007 RMK AO2 SLP182 T02780233
KMCO 150253Z 14004KT 10SM FEW045 SCT075 SCT250 28/23 A3009 RMK AO2 SLP187 T02780233 51017
KMCO 150153Z 12005KT 10SM BKN033 BKN085 BKN200 29/23 A3008 RMK AO2 SLP183 T02890233
KMCO 150053Z 21005KT 10SM FEW037 SCT085 BKN200 29/23 A3006 RMK AO2 LTG DSNT N SLP177 CB DSNT NW T02940233
KMCO 142353Z 23004KT 10SM FEW050 FEW100 BKN200 31/22 A3004 RMK AO2 LTG DSNT NW SLP171 CB DSNT NW VCSH NW T03060222 10344 20306 55001
KMCO 142253Z 17005KT 10SM FEW050 BKN200 32/22 A3003 RMK AO2 SLP167 CB DSNT SW-NW T03170217
KMCO 142153Z 17007KT 10SM FEW050 BKN200 33/18 A3003 RMK AO2 SLP167 CB DSNT SW-NW T03280178
KMCO 142053Z 19006KT 10SM FEW050 OVC200 33/17 A3004 RMK AO2 SLP171 CB DSNT NE AND SW-NW MOV W T03330167 58015
KMCO 141953Z 16007KT 10SM FEW050CB OVC200 34/21 A3006 RMK AO2 SLP177 CB W AND DSNT ALQDS MOV W T03390206
KMCO 141853Z 19006KT 10SM FEW050 OVC200 34/21 A3007 RMK AO2 SLP182 T03390211
KMCO 141753Z 00000KT 10SM SCT050 BKN200 33/21 A3009 RMK AO2 SLP186 T03330206 10333 20250 58007
KMCO 141653Z VRB04KT 10SM FEW040 BKN200 33/22 A3011 RMK AO2 SLP195 T03330217
KMCO 141553Z 00000KT 10SM FEW035 OVC230 32/22 A3011 RMK AO2 SLP193 T03170222
KMCO 141453Z VRB03KT 10SM FEW035 BKN230 31/23 A3011 RMK AO2 SLP193 T03110228 50001
KMCO 141353Z 00000KT 10SM OVC250 28/24 A3011 RMK AO2 SLP195 T02830239
KMCO 141253Z 00000KT 10SM OVC250 27/24 A3012 RMK AO2 SLP198 T02670239
KMCO 141153Z 00000KT 10SM BKN250 25/24 A3010 RMK AO2 SLP192 T02500239 10250 20228 53011